sensor_id;sensor_type;location;lat;lon;timestamp;P1;durP1;ratioP1;P2;durP2;ratioP2
7263;SDS011;3673;52.480;13.348;2022-12-18T00:00:45;43.78;;;18.25;;
7263;SDS011;3673;52.480;13.348;2022-12-18T00:03:14;41.92;;;15.60;;
7263;SDS011;3673;52.480;13.348;2022-12-18T00:05:45;37.42;;;15.48;;
7263;SDS011;3673;52.480;13.348;2022-12-18T00:08:13;42.22;;;16.55;;
7263;SDS011;3673;52.480;13.348;2022-12-18T00:10:41;46.50;;;16.42;;
7263;SDS011;3673;52.480;13.348;2022-12-18T00:13:08;44.22;;;17.92;;
7263;SDS011;3673;52.480;13.348;2022-12-18T00:15:36;36.55;;;15.98;;
7263;SDS011;3673;52.480;13.348;2022-12-18T00:18:03;47.25;;;18.33;;
7263;SDS011;3673;52.480;13.348;2022-12-18T00:20:32;38.13;;;15.15;;
7263;SDS011;3673;52.480;13.348;2022-12-18T00:23:02;40.58;;;15.45;;
7263;SDS011;3673;52.480;13.348;2022-12-18T00:25:29;51.33;;;17.60;;
7263;SDS011;3673;52.480;13.348;2022-12-18T00:27:55;56.92;;;19.67;;
7263;SDS011;3673;52.480;13.348;2022-12-18T00:30:22;47.15;;;17.58;;
7263;SDS011;3673;52.480;13.348;2022-12-18T00:32:49;57.00;;;19.73;;
7263;SDS011;3673;52.480;13.348;2022-12-18T00:35:16;53.38;;;20.05;;
7263;SDS011;3673;52.480;13.348;2022-12-18T00:37:44;50.50;;;18.40;;
7263;SDS011;3673;52.480;13.348;2022-12-18T00:40:11;49.47;;;18.33;;
7263;SDS011;3673;52.480;13.348;2022-12-18T00:42:38;46.53;;;19.02;;
7263;SDS011;3673;52.480;13.348;2022-12-18T00:45:22;47.72;;;17.55;;
7263;SDS011;3673;52.480;13.348;2022-12-18T00:47:50;44.33;;;16.65;;
7263;SDS011;3673;52.480;13.348;2022-12-18T00:50:16;47.42;;;17.75;;
7263;SDS011;3673;52.480;13.348;2022-12-18T00:52:45;49.63;;;18.75;;
7263;SDS011;3673;52.480;13.348;2022-12-18T00:55:12;48.72;;;17.45;;
7263;SDS011;3673;52.480;13.348;2022-12-18T00:57:39;45.47;;;16.20;;
7263;SDS011;3673;52.480;13.348;2022-12-18T01:00:07;50.97;;;19.00;;
7263;SDS011;3673;52.480;13.348;2022-12-18T01:02:36;46.80;;;18.60;;
7263;SDS011;3673;52.480;13.348;2022-12-18T01:05:03;53.78;;;19.48;;
7263;SDS011;3673;52.480;13.348;2022-12-18T01:07:31;47.83;;;19.48;;
7263;SDS011;3673;52.480;13.348;2022-12-18T01:09:59;51.90;;;20.00;;
7263;SDS011;3673;52.480;13.348;2022-12-18T01:12:26;52.17;;;19.77;;
7263;SDS011;3673;52.480;13.348;2022-12-18T01:14:53;49.45;;;18.27;;
7263;SDS011;3673;52.480;13.348;2022-12-18T01:17:19;48.17;;;17.95;;
7263;SDS011;3673;52.480;13.348;2022-12-18T01:19:46;53.00;;;18.75;;
7263;SDS011;3673;52.480;13.348;2022-12-18T01:22:13;52.60;;;18.63;;
7263;SDS011;3673;52.480;13.348;2022-12-18T01:24:40;47.65;;;19.10;;
7263;SDS011;3673;52.480;13.348;2022-12-18T01:27:08;57.13;;;19.85;;
7263;SDS011;3673;52.480;13.348;2022-12-18T01:29:35;60.83;;;21.05;;
7263;SDS011;3673;52.480;13.348;2022-12-18T01:32:01;63.35;;;21.48;;
7263;SDS011;3673;52.480;13.348;2022-12-18T01:34:28;59.50;;;21.48;;
7263;SDS011;3673;52.480;13.348;2022-12-18T01:36:55;51.58;;;17.95;;
7263;SDS011;3673;52.480;13.348;2022-12-18T01:39:22;52.13;;;18.45;;
7263;SDS011;3673;52.480;13.348;2022-12-18T01:41:49;47.58;;;19.38;;
7263;SDS011;3673;52.480;13.348;2022-12-18T01:47:28;46.75;;;16.90;;
7263;SDS011;3673;52.480;13.348;2022-12-18T01:50:00;47.30;;;17.10;;
7263;SDS011;3673;52.480;13.348;2022-12-18T01:52:32;48.60;;;17.92;;
7263;SDS011;3673;52.480;13.348;2022-12-18T01:55:00;52.50;;;20.23;;
7263;SDS011;3673;52.480;13.348;2022-12-18T01:57:30;48.90;;;19.08;;
7263;SDS011;3673;52.480;13.348;2022-12-18T02:00:01;51.38;;;18.48;;
7263;SDS011;3673;52.480;13.348;2022-12-18T02:02:34;54.80;;;19.55;;
7263;SDS011;3673;52.480;13.348;2022-12-18T02:05:02;49.65;;;19.55;;
7263;SDS011;3673;52.480;13.348;2022-12-18T02:07:32;51.75;;;18.17;;
7263;SDS011;3673;52.480;13.348;2022-12-18T02:10:10;42.80;;;18.35;;
7263;SDS011;3673;52.480;13.348;2022-12-18T02:12:45;52.72;;;18.40;;
7263;SDS011;3673;52.480;13.348;2022-12-18T02:15:21;48.88;;;20.60;;
7263;SDS011;3673;52.480;13.348;2022-12-18T02:17:55;58.28;;;21.90;;
7263;SDS011;3673;52.480;13.348;2022-12-18T02:20:28;49.92;;;18.60;;
7263;SDS011;3673;52.480;13.348;2022-12-18T02:23:04;57.40;;;21.55;;
7263;SDS011;3673;52.480;13.348;2022-12-18T02:25:54;46.67;;;19.08;;
7263;SDS011;3673;52.480;13.348;2022-12-18T02:28:40;49.60;;;19.60;;
7263;SDS011;3673;52.480;13.348;2022-12-18T02:31:11;51.20;;;18.55;;
7263;SDS011;3673;52.480;13.348;2022-12-18T02:33:43;53.72;;;20.33;;
7263;SDS011;3673;52.480;13.348;2022-12-18T02:36:12;49.78;;;19.05;;
7263;SDS011;3673;52.480;13.348;2022-12-18T02:38:41;48.17;;;16.77;;
7263;SDS011;3673;52.480;13.348;2022-12-18T02:41:11;44.47;;;17.58;;
7263;SDS011;3673;52.480;13.348;2022-12-18T02:43:45;47.95;;;18.63;;
7263;SDS011;3673;52.480;13.348;2022-12-18T02:46:26;49.47;;;19.15;;
7263;SDS011;3673;52.480;13.348;2022-12-18T02:49:01;48.80;;;18.00;;
7263;SDS011;3673;52.480;13.348;2022-12-18T02:51:40;44.13;;;16.55;;
7263;SDS011;3673;52.480;13.348;2022-12-18T02:54:21;47.50;;;17.00;;
7263;SDS011;3673;52.480;13.348;2022-12-18T02:57:08;47.67;;;19.10;;
7263;SDS011;3673;52.480;13.348;2022-12-18T02:59:47;52.80;;;17.23;;
7263;SDS011;3673;52.480;13.348;2022-12-18T03:02:25;47.35;;;18.83;;
7263;SDS011;3673;52.480;13.348;2022-12-18T03:05:00;48.00;;;18.10;;
7263;SDS011;3673;52.480;13.348;2022-12-18T03:07:35;46.15;;;16.55;;
7263;SDS011;3673;52.480;13.348;2022-12-18T03:10:09;44.58;;;16.83;;
7263;SDS011;3673;52.480;13.348;2022-12-18T03:12:44;43.83;;;16.00;;
7263;SDS011;3673;52.480;13.348;2022-12-18T03:15:18;41.55;;;17.30;;
7263;SDS011;3673;52.480;13.348;2022-12-18T03:17:50;47.08;;;17.52;;
7263;SDS011;3673;52.480;13.348;2022-12-18T03:20:22;51.80;;;18.50;;
7263;SDS011;3673;52.480;13.348;2022-12-18T03:22:52;44.15;;;17.08;;
7263;SDS011;3673;52.480;13.348;2022-12-18T03:25:25;48.33;;;17.92;;
7263;SDS011;3673;52.480;13.348;2022-12-18T03:27:55;47.72;;;17.63;;
7263;SDS011;3673;52.480;13.348;2022-12-18T03:30:25;44.75;;;16.65;;
7263;SDS011;3673;52.480;13.348;2022-12-18T03:32:56;52.85;;;19.20;;
7263;SDS011;3673;52.480;13.348;2022-12-18T03:35:32;46.70;;;16.30;;
7263;SDS011;3673;52.480;13.348;2022-12-18T03:38:05;55.17;;;19.05;;
7263;SDS011;3673;52.480;13.348;2022-12-18T03:40:33;48.85;;;18.02;;
7263;SDS011;3673;52.480;13.348;2022-12-18T03:43:14;46.90;;;17.30;;
7263;SDS011;3673;52.480;13.348;2022-12-18T03:45:48;57.53;;;19.90;;
7263;SDS011;3673;52.480;13.348;2022-12-18T03:48:20;54.42;;;20.02;;
7263;SDS011;3673;52.480;13.348;2022-12-18T03:50:56;59.55;;;19.60;;
7263;SDS011;3673;52.480;13.348;2022-12-18T03:53:29;61.30;;;20.88;;
7263;SDS011;3673;52.480;13.348;2022-12-18T03:56:02;66.45;;;22.92;;
7263;SDS011;3673;52.480;13.348;2022-12-18T03:58:32;61.45;;;21.30;;
7263;SDS011;3673;52.480;13.348;2022-12-18T04:01:05;59.35;;;21.25;;
7263;SDS011;3673;52.480;13.348;2022-12-18T04:03:37;69.10;;;20.80;;
7263;SDS011;3673;52.480;13.348;2022-12-18T04:06:05;62.03;;;22.15;;
7263;SDS011;3673;52.480;13.348;2022-12-18T04:08:33;60.38;;;19.27;;
7263;SDS011;3673;52.480;13.348;2022-12-18T04:11:01;66.15;;;22.10;;
7263;SDS011;3673;52.480;13.348;2022-12-18T04:13:29;76.55;;;22.70;;
7263;SDS011;3673;52.480;13.348;2022-12-18T04:16:00;71.93;;;24.77;;
7263;SDS011;3673;52.480;13.348;2022-12-18T04:18:27;70.93;;;22.33;;
7263;SDS011;3673;52.480;13.348;2022-12-18T04:20:54;74.90;;;24.17;;
7263;SDS011;3673;52.480;13.348;2022-12-18T04:23:20;72.25;;;24.55;;
7263;SDS011;3673;52.480;13.348;2022-12-18T04:25:47;75.55;;;23.70;;
7263;SDS011;3673;52.480;13.348;2022-12-18T04:28:14;95.80;;;26.17;;
7263;SDS011;3673;52.480;13.348;2022-12-18T04:30:42;76.05;;;25.55;;
7263;SDS011;3673;52.480;13.348;2022-12-18T04:33:09;75.13;;;26.23;;
7263;SDS011;3673;52.480;13.348;2022-12-18T04:35:37;65.72;;;24.83;;
7263;SDS011;3673;52.480;13.348;2022-12-18T04:38:05;80.72;;;27.48;;
7263;SDS011;3673;52.480;13.348;2022-12-18T04:40:33;73.53;;;23.95;;
7263;SDS011;3673;52.480;13.348;2022-12-18T04:43:01;88.18;;;26.95;;
7263;SDS011;3673;52.480;13.348;2022-12-18T04:45:29;89.28;;;27.20;;
7263;SDS011;3673;52.480;13.348;2022-12-18T04:47:58;96.53;;;31.20;;
7263;SDS011;3673;52.480;13.348;2022-12-18T04:50:25;85.97;;;27.80;;
7263;SDS011;3673;52.480;13.348;2022-12-18T04:52:52;87.72;;;27.95;;
7263;SDS011;3673;52.480;13.348;2022-12-18T04:55:19;84.05;;;26.48;;
7263;SDS011;3673;52.480;13.348;2022-12-18T04:57:47;75.85;;;27.83;;
7263;SDS011;3673;52.480;13.348;2022-12-18T05:00:14;84.45;;;27.38;;
7263;SDS011;3673;52.480;13.348;2022-12-18T05:02:41;83.32;;;26.73;;
7263;SDS011;3673;52.480;13.348;2022-12-18T05:05:09;76.63;;;25.80;;
7263;SDS011;3673;52.480;13.348;2022-12-18T05:07:36;77.72;;;25.73;;
7263;SDS011;3673;52.480;13.348;2022-12-18T05:10:04;82.63;;;26.80;;
7263;SDS011;3673;52.480;13.348;2022-12-18T05:12:34;75.05;;;24.73;;
7263;SDS011;3673;52.480;13.348;2022-12-18T05:15:22;72.40;;;25.38;;
7263;SDS011;3673;52.480;13.348;2022-12-18T05:17:48;73.57;;;24.17;;
7263;SDS011;3673;52.480;13.348;2022-12-18T05:20:17;72.15;;;25.50;;
7263;SDS011;3673;52.480;13.348;2022-12-18T05:22:44;85.07;;;25.23;;
7263;SDS011;3673;52.480;13.348;2022-12-18T05:25:11;87.30;;;24.65;;
7263;SDS011;3673;52.480;13.348;2022-12-18T05:27:38;78.30;;;25.52;;
7263;SDS011;3673;52.480;13.348;2022-12-18T05:30:05;80.45;;;24.98;;
7263;SDS011;3673;52.480;13.348;2022-12-18T05:32:34;75.15;;;26.95;;
7263;SDS011;3673;52.480;13.348;2022-12-18T05:35:00;74.43;;;25.23;;
7263;SDS011;3673;52.480;13.348;2022-12-18T05:37:29;78.43;;;26.40;;
7263;SDS011;3673;52.480;13.348;2022-12-18T05:39:56;84.93;;;28.17;;
7263;SDS011;3673;52.480;13.348;2022-12-18T05:42:23;80.25;;;27.27;;
7263;SDS011;3673;52.480;13.348;2022-12-18T05:44:50;88.05;;;26.60;;
7263;SDS011;3673;52.480;13.348;2022-12-18T05:47:16;86.20;;;26.73;;
7263;SDS011;3673;52.480;13.348;2022-12-18T05:49:43;91.63;;;27.98;;
7263;SDS011;3673;52.480;13.348;2022-12-18T05:52:10;82.60;;;26.08;;
7263;SDS011;3673;52.480;13.348;2022-12-18T05:54:38;90.20;;;27.88;;
7263;SDS011;3673;52.480;13.348;2022-12-18T05:57:05;86.32;;;28.15;;
7263;SDS011;3673;52.480;13.348;2022-12-18T05:59:32;84.63;;;28.70;;
7263;SDS011;3673;52.480;13.348;2022-12-18T06:01:59;83.57;;;28.05;;
7263;SDS011;3673;52.480;13.348;2022-12-18T06:04:26;88.38;;;27.50;;
7263;SDS011;3673;52.480;13.348;2022-12-18T06:06:58;92.85;;;27.83;;
7263;SDS011;3673;52.480;13.348;2022-12-18T06:09:25;83.35;;;28.33;;
7263;SDS011;3673;52.480;13.348;2022-12-18T06:11:53;84.07;;;28.08;;
7263;SDS011;3673;52.480;13.348;2022-12-18T06:14:20;95.90;;;29.80;;
7263;SDS011;3673;52.480;13.348;2022-12-18T06:16:46;96.50;;;27.98;;
7263;SDS011;3673;52.480;13.348;2022-12-18T06:19:16;80.75;;;27.35;;
7263;SDS011;3673;52.480;13.348;2022-12-18T06:21:43;89.15;;;27.92;;
7263;SDS011;3673;52.480;13.348;2022-12-18T06:24:10;82.70;;;26.85;;
7263;SDS011;3673;52.480;13.348;2022-12-18T06:26:37;93.68;;;28.65;;
7263;SDS011;3673;52.480;13.348;2022-12-18T06:29:06;83.72;;;28.92;;
7263;SDS011;3673;52.480;13.348;2022-12-18T06:31:33;90.72;;;29.70;;
7263;SDS011;3673;52.480;13.348;2022-12-18T06:34:01;85.45;;;30.40;;
7263;SDS011;3673;52.480;13.348;2022-12-18T06:36:29;93.18;;;28.88;;
7263;SDS011;3673;52.480;13.348;2022-12-18T06:38:57;78.80;;;28.23;;
7263;SDS011;3673;52.480;13.348;2022-12-18T06:41:24;86.85;;;28.42;;
7263;SDS011;3673;52.480;13.348;2022-12-18T06:43:51;80.45;;;26.23;;
7263;SDS011;3673;52.480;13.348;2022-12-18T06:46:19;78.18;;;27.38;;
7263;SDS011;3673;52.480;13.348;2022-12-18T06:48:46;96.07;;;31.67;;
7263;SDS011;3673;52.480;13.348;2022-12-18T06:51:15;82.50;;;28.95;;
7263;SDS011;3673;52.480;13.348;2022-12-18T06:53:46;85.50;;;28.10;;
7263;SDS011;3673;52.480;13.348;2022-12-18T06:56:13;77.53;;;25.02;;
7263;SDS011;3673;52.480;13.348;2022-12-18T06:58:40;75.93;;;26.88;;
7263;SDS011;3673;52.480;13.348;2022-12-18T07:01:08;81.82;;;28.90;;
7263;SDS011;3673;52.480;13.348;2022-12-18T07:03:38;82.50;;;27.92;;
7263;SDS011;3673;52.480;13.348;2022-12-18T07:06:06;67.97;;;26.55;;
7263;SDS011;3673;52.480;13.348;2022-12-18T07:08:41;65.97;;;23.70;;
7263;SDS011;3673;52.480;13.348;2022-12-18T07:11:08;79.13;;;26.13;;
7263;SDS011;3673;52.480;13.348;2022-12-18T07:13:35;70.57;;;25.38;;
7263;SDS011;3673;52.480;13.348;2022-12-18T07:16:06;70.35;;;26.17;;
7263;SDS011;3673;52.480;13.348;2022-12-18T07:18:34;63.28;;;23.85;;
7263;SDS011;3673;52.480;13.348;2022-12-18T07:21:04;68.53;;;24.25;;
7263;SDS011;3673;52.480;13.348;2022-12-18T07:23:32;60.00;;;22.25;;
7263;SDS011;3673;52.480;13.348;2022-12-18T07:26:01;73.15;;;24.38;;
7263;SDS011;3673;52.480;13.348;2022-12-18T07:28:29;69.63;;;24.55;;
7263;SDS011;3673;52.480;13.348;2022-12-18T07:30:57;59.85;;;21.95;;
7263;SDS011;3673;52.480;13.348;2022-12-18T07:33:28;57.15;;;21.45;;
7263;SDS011;3673;52.480;13.348;2022-12-18T07:35:54;66.32;;;23.67;;
7263;SDS011;3673;52.480;13.348;2022-12-18T07:38:23;54.95;;;20.45;;
7263;SDS011;3673;52.480;13.348;2022-12-18T07:40:50;56.15;;;19.50;;
7263;SDS011;3673;52.480;13.348;2022-12-18T07:43:16;53.85;;;19.65;;
7263;SDS011;3673;52.480;13.348;2022-12-18T07:45:43;44.70;;;16.90;;
7263;SDS011;3673;52.480;13.348;2022-12-18T07:48:10;57.28;;;20.08;;
7263;SDS011;3673;52.480;13.348;2022-12-18T07:50:37;52.70;;;18.50;;
7263;SDS011;3673;52.480;13.348;2022-12-18T07:53:04;58.30;;;18.85;;
7263;SDS011;3673;52.480;13.348;2022-12-18T07:55:32;52.25;;;18.17;;
7263;SDS011;3673;52.480;13.348;2022-12-18T07:58:00;57.33;;;20.35;;
7263;SDS011;3673;52.480;13.348;2022-12-18T08:00:28;53.58;;;19.85;;
7263;SDS011;3673;52.480;13.348;2022-12-18T08:02:55;62.40;;;21.13;;
7263;SDS011;3673;52.480;13.348;2022-12-18T08:05:22;60.20;;;20.55;;
7263;SDS011;3673;52.480;13.348;2022-12-18T08:07:49;56.38;;;19.98;;
7263;SDS011;3673;52.480;13.348;2022-12-18T08:10:16;57.88;;;20.45;;
7263;SDS011;3673;52.480;13.348;2022-12-18T08:12:44;56.78;;;20.38;;
7263;SDS011;3673;52.480;13.348;2022-12-18T08:15:11;64.03;;;21.42;;
7263;SDS011;3673;52.480;13.348;2022-12-18T08:17:38;56.47;;;19.42;;
7263;SDS011;3673;52.480;13.348;2022-12-18T08:20:05;53.95;;;20.85;;
7263;SDS011;3673;52.480;13.348;2022-12-18T08:22:33;62.50;;;21.17;;
7263;SDS011;3673;52.480;13.348;2022-12-18T08:25:01;48.42;;;19.05;;
7263;SDS011;3673;52.480;13.348;2022-12-18T08:27:28;55.83;;;20.05;;
7263;SDS011;3673;52.480;13.348;2022-12-18T08:29:57;53.45;;;19.77;;
7263;SDS011;3673;52.480;13.348;2022-12-18T08:32:24;54.90;;;19.60;;
7263;SDS011;3673;52.480;13.348;2022-12-18T08:34:53;48.03;;;19.52;;
7263;SDS011;3673;52.480;13.348;2022-12-18T08:37:20;58.60;;;21.08;;
7263;SDS011;3673;52.480;13.348;2022-12-18T08:39:47;48.20;;;21.02;;
7263;SDS011;3673;52.480;13.348;2022-12-18T08:42:14;59.58;;;19.75;;
7263;SDS011;3673;52.480;13.348;2022-12-18T08:44:59;55.67;;;20.52;;
7263;SDS011;3673;52.480;13.348;2022-12-18T08:47:26;54.33;;;20.42;;
7263;SDS011;3673;52.480;13.348;2022-12-18T08:49:53;57.53;;;21.13;;
7263;SDS011;3673;52.480;13.348;2022-12-18T08:52:19;56.13;;;20.70;;
7263;SDS011;3673;52.480;13.348;2022-12-18T08:54:46;48.75;;;19.67;;
7263;SDS011;3673;52.480;13.348;2022-12-18T08:57:13;56.20;;;22.38;;
7263;SDS011;3673;52.480;13.348;2022-12-18T08:59:40;51.88;;;19.48;;
7263;SDS011;3673;52.480;13.348;2022-12-18T09:02:08;51.03;;;18.80;;
7263;SDS011;3673;52.480;13.348;2022-12-18T09:04:36;48.72;;;18.48;;
7263;SDS011;3673;52.480;13.348;2022-12-18T09:07:04;51.92;;;18.85;;
7263;SDS011;3673;52.480;13.348;2022-12-18T09:09:31;55.13;;;19.55;;
7263;SDS011;3673;52.480;13.348;2022-12-18T09:11:58;44.97;;;18.33;;
7263;SDS011;3673;52.480;13.348;2022-12-18T09:14:24;40.58;;;16.58;;
7263;SDS011;3673;52.480;13.348;2022-12-18T09:16:51;46.03;;;18.65;;
7263;SDS011;3673;52.480;13.348;2022-12-18T09:19:19;45.75;;;17.80;;
7263;SDS011;3673;52.480;13.348;2022-12-18T09:21:46;50.03;;;18.63;;
7263;SDS011;3673;52.480;13.348;2022-12-18T09:24:13;48.25;;;19.08;;
7263;SDS011;3673;52.480;13.348;2022-12-18T09:26:41;42.75;;;17.35;;
7263;SDS011;3673;52.480;13.348;2022-12-18T09:29:08;57.50;;;18.70;;
7263;SDS011;3673;52.480;13.348;2022-12-18T09:31:35;56.05;;;20.60;;
7263;SDS011;3673;52.480;13.348;2022-12-18T09:34:05;53.80;;;22.15;;
7263;SDS011;3673;52.480;13.348;2022-12-18T09:36:33;51.45;;;18.85;;
7263;SDS011;3673;52.480;13.348;2022-12-18T09:39:00;51.00;;;18.48;;
7263;SDS011;3673;52.480;13.348;2022-12-18T09:41:32;48.75;;;18.88;;
7263;SDS011;3673;52.480;13.348;2022-12-18T09:44:14;50.33;;;19.33;;
7263;SDS011;3673;52.480;13.348;2022-12-18T09:46:49;51.42;;;19.67;;
7263;SDS011;3673;52.480;13.348;2022-12-18T09:49:23;39.35;;;14.85;;
7263;SDS011;3673;52.480;13.348;2022-12-18T09:51:59;48.70;;;18.23;;
7263;SDS011;3673;52.480;13.348;2022-12-18T09:54:32;49.55;;;20.00;;
7263;SDS011;3673;52.480;13.348;2022-12-18T09:57:04;54.50;;;21.17;;
7263;SDS011;3673;52.480;13.348;2022-12-18T09:59:32;52.20;;;21.00;;
7263;SDS011;3673;52.480;13.348;2022-12-18T10:02:14;51.42;;;18.38;;
7263;SDS011;3673;52.480;13.348;2022-12-18T10:04:44;42.22;;;16.90;;
7263;SDS011;3673;52.480;13.348;2022-12-18T10:07:26;50.70;;;20.73;;
7263;SDS011;3673;52.480;13.348;2022-12-18T10:10:02;48.08;;;17.95;;
7263;SDS011;3673;52.480;13.348;2022-12-18T10:12:36;44.63;;;17.58;;
7263;SDS011;3673;52.480;13.348;2022-12-18T10:15:18;41.97;;;17.50;;
7263;SDS011;3673;52.480;13.348;2022-12-18T10:17:52;42.92;;;16.60;;
7263;SDS011;3673;52.480;13.348;2022-12-18T10:20:27;44.08;;;16.75;;
7263;SDS011;3673;52.480;13.348;2022-12-18T10:23:03;42.35;;;16.85;;
7263;SDS011;3673;52.480;13.348;2022-12-18T10:25:42;53.80;;;19.85;;
7263;SDS011;3673;52.480;13.348;2022-12-18T10:28:19;45.13;;;17.05;;
7263;SDS011;3673;52.480;13.348;2022-12-18T10:30:47;52.13;;;17.98;;
7263;SDS011;3673;52.480;13.348;2022-12-18T10:33:14;51.22;;;18.90;;
7263;SDS011;3673;52.480;13.348;2022-12-18T10:35:44;51.10;;;19.15;;
7263;SDS011;3673;52.480;13.348;2022-12-18T10:38:24;50.55;;;18.90;;
7263;SDS011;3673;52.480;13.348;2022-12-18T10:40:53;49.90;;;18.75;;
7263;SDS011;3673;52.480;13.348;2022-12-18T10:43:23;56.40;;;20.30;;
7263;SDS011;3673;52.480;13.348;2022-12-18T10:46:00;52.45;;;18.45;;
7263;SDS011;3673;52.480;13.348;2022-12-18T10:48:39;55.30;;;20.00;;
7263;SDS011;3673;52.480;13.348;2022-12-18T10:51:19;54.53;;;20.58;;
7263;SDS011;3673;52.480;13.348;2022-12-18T10:53:52;54.67;;;20.90;;
7263;SDS011;3673;52.480;13.348;2022-12-18T10:56:23;48.45;;;20.20;;
7263;SDS011;3673;52.480;13.348;2022-12-18T10:58:56;52.30;;;19.98;;
7263;SDS011;3673;52.480;13.348;2022-12-18T11:01:26;50.30;;;19.65;;
7263;SDS011;3673;52.480;13.348;2022-12-18T11:04:00;52.88;;;21.52;;
7263;SDS011;3673;52.480;13.348;2022-12-18T11:06:34;47.35;;;20.63;;
7263;SDS011;3673;52.480;13.348;2022-12-18T11:09:30;56.08;;;22.00;;
7263;SDS011;3673;52.480;13.348;2022-12-18T11:11:59;57.72;;;22.63;;
7263;SDS011;3673;52.480;13.348;2022-12-18T11:14:29;57.60;;;21.52;;
7263;SDS011;3673;52.480;13.348;2022-12-18T11:17:00;49.17;;;20.33;;
7263;SDS011;3673;52.480;13.348;2022-12-18T11:19:32;57.67;;;20.75;;
7263;SDS011;3673;52.480;13.348;2022-12-18T11:22:01;60.28;;;21.52;;
7263;SDS011;3673;52.480;13.348;2022-12-18T11:24:51;49.70;;;20.35;;
7263;SDS011;3673;52.480;13.348;2022-12-18T11:27:22;51.85;;;20.63;;
7263;SDS011;3673;52.480;13.348;2022-12-18T11:29:49;49.72;;;19.75;;
7263;SDS011;3673;52.480;13.348;2022-12-18T11:35:11;56.97;;;20.92;;
7263;SDS011;3673;52.480;13.348;2022-12-18T11:37:46;52.95;;;22.23;;
7263;SDS011;3673;52.480;13.348;2022-12-18T11:40:22;39.97;;;16.55;;
7263;SDS011;3673;52.480;13.348;2022-12-18T11:45:30;36.40;;;16.67;;
7263;SDS011;3673;52.480;13.348;2022-12-18T11:48:02;42.95;;;18.50;;
7263;SDS011;3673;52.480;13.348;2022-12-18T11:50:41;36.97;;;17.63;;
7263;SDS011;3673;52.480;13.348;2022-12-18T11:53:14;40.17;;;18.43;;
7263;SDS011;3673;52.480;13.348;2022-12-18T11:55:44;45.10;;;18.00;;
7263;SDS011;3673;52.480;13.348;2022-12-18T11:58:26;42.15;;;18.02;;
7263;SDS011;3673;52.480;13.348;2022-12-18T12:01:11;44.53;;;17.33;;
7263;SDS011;3673;52.480;13.348;2022-12-18T12:03:50;39.45;;;17.98;;
7263;SDS011;3673;52.480;13.348;2022-12-18T12:06:44;45.88;;;18.17;;
7263;SDS011;3673;52.480;13.348;2022-12-18T12:09:20;45.28;;;18.30;;
7263;SDS011;3673;52.480;13.348;2022-12-18T12:11:59;43.90;;;17.00;;
7263;SDS011;3673;52.480;13.348;2022-12-18T12:14:44;42.28;;;17.38;;
7263;SDS011;3673;52.480;13.348;2022-12-18T12:17:22;44.85;;;19.13;;
7263;SDS011;3673;52.480;13.348;2022-12-18T12:20:00;43.13;;;18.40;;
7263;SDS011;3673;52.480;13.348;2022-12-18T12:22:39;37.45;;;16.63;;
7263;SDS011;3673;52.480;13.348;2022-12-18T12:25:19;42.53;;;16.73;;
7263;SDS011;3673;52.480;13.348;2022-12-18T12:28:01;42.15;;;17.92;;
7263;SDS011;3673;52.480;13.348;2022-12-18T12:30:43;41.72;;;18.33;;
7263;SDS011;3673;52.480;13.348;2022-12-18T12:44:15;44.30;;;19.23;;
7263;SDS011;3673;52.480;13.348;2022-12-18T12:46:48;49.08;;;20.48;;
7263;SDS011;3673;52.480;13.348;2022-12-18T12:49:18;43.92;;;19.27;;
7263;SDS011;3673;52.480;13.348;2022-12-18T12:55:33;46.85;;;18.77;;
7263;SDS011;3673;52.480;13.348;2022-12-18T13:05:23;44.35;;;18.10;;
7263;SDS011;3673;52.480;13.348;2022-12-18T13:07:57;44.72;;;18.90;;
7263;SDS011;3673;52.480;13.348;2022-12-18T13:10:33;43.40;;;20.27;;
7263;SDS011;3673;52.480;13.348;2022-12-18T13:13:03;39.97;;;18.23;;
7263;SDS011;3673;52.480;13.348;2022-12-18T13:16:29;45.83;;;20.60;;
7263;SDS011;3673;52.480;13.348;2022-12-18T13:18:56;42.65;;;19.27;;
7263;SDS011;3673;52.480;13.348;2022-12-18T13:21:26;44.58;;;18.88;;
7263;SDS011;3673;52.480;13.348;2022-12-18T13:23:55;45.45;;;20.88;;
7263;SDS011;3673;52.480;13.348;2022-12-18T13:26:40;44.67;;;19.10;;
7263;SDS011;3673;52.480;13.348;2022-12-18T13:29:06;46.20;;;19.92;;
7263;SDS011;3673;52.480;13.348;2022-12-18T13:38:33;50.80;;;19.45;;
7263;SDS011;3673;52.480;13.348;2022-12-18T13:43:55;44.75;;;19.77;;
7263;SDS011;3673;52.480;13.348;2022-12-18T13:46:42;39.15;;;19.65;;
7263;SDS011;3673;52.480;13.348;2022-12-18T13:49:17;44.25;;;19.38;;
7263;SDS011;3673;52.480;13.348;2022-12-18T13:51:50;40.58;;;19.95;;
7263;SDS011;3673;52.480;13.348;2022-12-18T13:54:22;40.38;;;19.77;;
7263;SDS011;3673;52.480;13.348;2022-12-18T13:56:54;43.53;;;19.85;;
7263;SDS011;3673;52.480;13.348;2022-12-18T13:59:22;41.78;;;21.35;;
7263;SDS011;3673;52.480;13.348;2022-12-18T14:01:52;42.05;;;20.75;;
7263;SDS011;3673;52.480;13.348;2022-12-18T14:19:08;51.75;;;23.67;;
7263;SDS011;3673;52.480;13.348;2022-12-18T14:21:40;54.35;;;24.98;;
7263;SDS011;3673;52.480;13.348;2022-12-18T14:24:14;57.90;;;26.17;;
7263;SDS011;3673;52.480;13.348;2022-12-18T14:52:33;42.60;;;20.83;;
7263;SDS011;3673;52.480;13.348;2022-12-18T14:55:00;46.03;;;22.98;;
7263;SDS011;3673;52.480;13.348;2022-12-18T14:57:34;46.28;;;21.23;;
7263;SDS011;3673;52.480;13.348;2022-12-18T15:03:49;40.05;;;21.00;;
7263;SDS011;3673;52.480;13.348;2022-12-18T15:10:04;42.63;;;18.67;;
7263;SDS011;3673;52.480;13.348;2022-12-18T15:19:33;37.78;;;18.23;;
7263;SDS011;3673;52.480;13.348;2022-12-18T15:22:04;33.95;;;17.13;;
7263;SDS011;3673;52.480;13.348;2022-12-18T15:24:49;32.45;;;16.58;;
7263;SDS011;3673;52.480;13.348;2022-12-18T15:27:21;35.13;;;17.05;;
7263;SDS011;3673;52.480;13.348;2022-12-18T15:30:00;31.58;;;15.50;;
7263;SDS011;3673;52.480;13.348;2022-12-18T15:32:43;29.75;;;15.55;;
7263;SDS011;3673;52.480;13.348;2022-12-18T15:35:12;33.10;;;15.77;;
7263;SDS011;3673;52.480;13.348;2022-12-18T15:37:43;29.25;;;17.23;;
7263;SDS011;3673;52.480;13.348;2022-12-18T15:43:26;31.55;;;15.88;;
7263;SDS011;3673;52.480;13.348;2022-12-18T15:49:40;30.90;;;16.15;;
7263;SDS011;3673;52.480;13.348;2022-12-18T15:55:49;34.08;;;16.38;;
7263;SDS011;3673;52.480;13.348;2022-12-18T15:58:49;33.60;;;16.67;;
7263;SDS011;3673;52.480;13.348;2022-12-18T16:08:37;34.75;;;17.15;;
7263;SDS011;3673;52.480;13.348;2022-12-18T16:11:04;36.15;;;17.27;;
7263;SDS011;3673;52.480;13.348;2022-12-18T16:13:32;41.97;;;17.65;;
7263;SDS011;3673;52.480;13.348;2022-12-18T16:16:00;34.83;;;16.83;;
7263;SDS011;3673;52.480;13.348;2022-12-18T16:18:26;36.42;;;17.42;;
7263;SDS011;3673;52.480;13.348;2022-12-18T16:20:53;29.48;;;14.88;;
7263;SDS011;3673;52.480;13.348;2022-12-18T16:23:20;30.95;;;16.45;;
7263;SDS011;3673;52.480;13.348;2022-12-18T16:25:47;35.53;;;15.85;;
7263;SDS011;3673;52.480;13.348;2022-12-18T16:28:15;35.97;;;17.45;;
7263;SDS011;3673;52.480;13.348;2022-12-18T16:30:42;36.72;;;19.17;;
7263;SDS011;3673;52.480;13.348;2022-12-18T16:33:11;32.03;;;17.63;;
7263;SDS011;3673;52.480;13.348;2022-12-18T16:35:37;32.78;;;18.08;;
7263;SDS011;3673;52.480;13.348;2022-12-18T16:38:04;30.48;;;15.90;;
7263;SDS011;3673;52.480;13.348;2022-12-18T16:40:31;32.85;;;16.95;;
7263;SDS011;3673;52.480;13.348;2022-12-18T16:43:18;34.08;;;16.27;;
7263;SDS011;3673;52.480;13.348;2022-12-18T16:45:45;34.58;;;17.05;;
7263;SDS011;3673;52.480;13.348;2022-12-18T16:48:13;33.28;;;16.27;;